createdAt,value
2022-09-30T00:00:52.655Z,14.90
2022-09-30T00:01:52.595Z,11.70
2022-09-30T00:02:49.275Z,8.20
2022-09-30T00:03:48.288Z,8.88
2022-09-30T00:04:44.936Z,8.90
2022-09-30T00:05:41.493Z,11.10
2022-09-30T00:06:38.090Z,15.90
2022-09-30T00:07:34.776Z,17.75
2022-09-30T00:08:31.581Z,11.20
2022-09-30T00:09:28.219Z,13.32
2022-09-30T00:10:24.798Z,12.23
2022-09-30T00:11:25.526Z,15.98
2022-09-30T00:12:22.143Z,16.85
2022-09-30T00:13:18.715Z,17.65
2022-09-30T00:14:21.498Z,13.88
2022-09-30T00:15:18.407Z,18.17
2022-09-30T00:16:15.781Z,13.70
2022-09-30T00:17:12.570Z,14.98
2022-09-30T00:18:09.174Z,21.70
2022-09-30T00:19:06.184Z,15.23
2022-09-30T00:20:03.220Z,19.50
2022-09-30T00:21:00.074Z,22.13
2022-09-30T00:21:56.879Z,18.73
2022-09-30T00:22:53.581Z,12.20
2022-09-30T00:23:50.353Z,20.35
2022-09-30T00:24:46.892Z,12.32
2022-09-30T00:25:43.467Z,16.27
2022-09-30T00:26:40.142Z,13.50
2022-09-30T00:27:36.743Z,22.83
2022-09-30T00:28:34.020Z,10.13
2022-09-30T00:29:30.663Z,9.82
2022-09-30T00:30:27.399Z,19.45
2022-09-30T00:31:27.057Z,16.88
2022-09-30T00:32:23.668Z,21.55
2022-09-30T00:33:20.494Z,18.95
2022-09-30T00:34:19.732Z,14.70
2022-09-30T00:35:20.541Z,13.68
2022-09-30T00:36:19.171Z,18.48
2022-09-30T00:37:16.830Z,20.50
2022-09-30T00:38:13.384Z,18.10
2022-09-30T00:39:14.119Z,19.27
2022-09-30T00:40:12.138Z,18.63
2022-09-30T00:41:08.715Z,17.63
2022-09-30T00:42:11.159Z,10.75
2022-09-30T00:43:16.212Z,14.70
2022-09-30T00:44:51.008Z,11.80
2022-09-30T00:46:00.028Z,10.18
2022-09-30T00:46:57.082Z,12.63
2022-09-30T00:47:57.756Z,10.05
2022-09-30T00:48:57.056Z,9.80
2022-09-30T00:49:55.417Z,24.42
2022-09-30T00:50:55.662Z,16.70
2022-09-30T00:51:56.141Z,20.95
2022-09-30T00:53:15.966Z,16.00
2022-09-30T00:54:17.240Z,12.55
2022-09-30T00:55:30.441Z,14.63
2022-09-30T00:57:28.243Z,13.93
2022-09-30T00:58:34.864Z,11.88
2022-09-30T00:59:47.149Z,15.77
2022-09-30T01:00:44.105Z,16.25
2022-09-30T01:01:42.199Z,15.68
2022-09-30T01:02:38.979Z,12.90
2022-09-30T01:04:09.880Z,18.02
2022-09-30T01:05:09.513Z,28.25
2022-09-30T01:06:06.137Z,24.00
2022-09-30T01:07:06.064Z,20.67
2022-09-30T01:08:05.410Z,22.92
2022-09-30T01:09:02.380Z,20.48
2022-09-30T01:09:59.124Z,23.65
2022-09-30T01:10:55.715Z,27.17
2022-09-30T01:11:52.705Z,22.45
2022-09-30T01:12:49.552Z,15.57
2022-09-30T01:13:51.821Z,14.85
2022-09-30T01:14:53.244Z,16.90
2022-09-30T01:15:50.698Z,9.65
2022-09-30T01:17:02.824Z,10.60
2022-09-30T01:18:16.487Z,22.25
2022-09-30T01:19:18.905Z,16.48
2022-09-30T01:21:34.848Z,21.38
2022-09-30T01:23:00.479Z,11.85
2022-09-30T01:23:58.023Z,16.40
2022-09-30T01:24:57.532Z,18.95
2022-09-30T01:26:19.071Z,14.80
2022-09-30T01:27:35.075Z,15.90
2022-09-30T01:28:37.936Z,12.68
2022-09-30T01:29:46.847Z,16.95
2022-09-30T01:31:14.569Z,10.55
2022-09-30T01:32:33.174Z,12.23
2022-09-30T01:34:05.074Z,11.68
2022-09-30T01:35:06.796Z,11.15
2022-09-30T01:36:12.055Z,13.77
2022-09-30T01:37:14.566Z,17.88
2022-09-30T01:39:43.199Z,15.70
2022-09-30T01:40:48.972Z,14.15
2022-09-30T01:42:01.351Z,15.45
2022-09-30T01:43:25.844Z,18.17
2022-09-30T01:44:38.437Z,23.15
2022-09-30T01:45:42.812Z,22.20
2022-09-30T01:47:06.725Z,20.80
2022-09-30T01:48:28.551Z,28.70
2022-09-30T01:49:50.630Z,21.55
2022-09-30T01:50:59.293Z,22.10
2022-09-30T01:52:04.504Z,14.98
2022-09-30T01:53:09.874Z,20.23
2022-09-30T01:54:22.547Z,29.45
2022-09-30T01:55:33.157Z,19.38
2022-09-30T01:56:45.083Z,26.98
2022-09-30T01:58:00.551Z,23.95
2022-09-30T01:59:03.233Z,20.75
2022-09-30T02:00:10.924Z,24.83
2022-09-30T02:01:16.387Z,23.90
2022-09-30T02:02:21.631Z,21.88
2022-09-30T02:03:34.965Z,23.80
2022-09-30T02:04:37.460Z,20.23
2022-09-30T02:06:44.543Z,22.60
2022-09-30T02:07:46.905Z,18.83
2022-09-30T02:09:03.338Z,27.20
2022-09-30T02:10:07.325Z,22.33
2022-09-30T02:11:27.537Z,15.18
2022-09-30T02:12:29.240Z,12.77
2022-09-30T02:13:32.665Z,21.90
2022-09-30T02:14:40.957Z,16.05
2022-09-30T02:15:44.261Z,12.35
2022-09-30T02:16:47.712Z,10.82
2022-09-30T02:17:52.929Z,18.67
2022-09-30T02:18:53.647Z,16.45
2022-09-30T02:20:10.688Z,21.42
2022-09-30T02:21:10.397Z,20.35
2022-09-30T02:22:21.031Z,22.40
2022-09-30T02:23:26.562Z,21.05
2022-09-30T02:24:26.475Z,21.98
2022-09-30T02:25:29.228Z,14.43
2022-09-30T02:26:29.949Z,9.40
2022-09-30T02:27:42.443Z,11.60
2022-09-30T02:28:44.580Z,11.15
2022-09-30T02:29:46.543Z,17.17
2022-09-30T02:30:48.115Z,9.48
2022-09-30T02:31:48.309Z,17.10
2022-09-30T02:32:56.715Z,13.23
2022-09-30T02:34:22.538Z,14.98
2022-09-30T02:35:30.927Z,12.75
2022-09-30T02:36:36.532Z,14.20
2022-09-30T02:37:37.795Z,14.40
2022-09-30T02:38:49.060Z,20.70
2022-09-30T02:39:56.448Z,17.83
2022-09-30T02:40:55.748Z,9.93
2022-09-30T02:42:00.427Z,17.13
2022-09-30T02:42:57.637Z,11.07
2022-09-30T02:43:55.758Z,12.43
2022-09-30T02:44:54.656Z,17.88
2022-09-30T02:45:58.976Z,20.42
2022-09-30T02:46:55.624Z,21.13
2022-09-30T02:48:16.643Z,14.98
2022-09-30T02:49:35.351Z,8.68
2022-09-30T02:50:47.143Z,16.45
2022-09-30T02:52:23.056Z,9.32
2022-09-30T02:53:28.650Z,12.20
2022-09-30T02:54:43.884Z,10.20
2022-09-30T02:55:47.624Z,12.80
2022-09-30T02:56:59.267Z,13.48
2022-09-30T02:58:11.532Z,9.75
2022-09-30T02:59:08.124Z,13.73
2022-09-30T03:00:11.774Z,9.13
2022-09-30T03:01:17.368Z,14.25
2022-09-30T03:02:14.714Z,14.50
2022-09-30T03:04:03.912Z,23.77
2022-09-30T03:05:00.847Z,10.70
2022-09-30T03:05:57.450Z,13.27
2022-09-30T03:06:55.353Z,9.40
2022-09-30T03:07:52.099Z,9.25
2022-09-30T03:08:48.944Z,16.63
2022-09-30T03:09:45.847Z,19.70
2022-09-30T03:10:43.728Z,16.05
2022-09-30T03:11:40.504Z,22.77
2022-09-30T03:12:46.222Z,25.40
2022-09-30T03:14:02.400Z,20.67
2022-09-30T03:15:13.110Z,15.48
2022-09-30T03:16:22.154Z,17.40
2022-09-30T03:17:26.499Z,20.20
2022-09-30T03:18:51.464Z,13.20
2022-09-30T03:19:53.969Z,16.42
2022-09-30T03:22:19.251Z,16.67
2022-09-30T03:23:27.593Z,12.27
2022-09-30T03:24:43.164Z,16.60
2022-09-30T03:25:45.811Z,15.82
2022-09-30T03:28:03.696Z,19.25
2022-09-30T03:29:15.444Z,16.80
2022-09-30T03:30:22.101Z,16.80
2022-09-30T03:31:28.280Z,18.30
2022-09-30T03:32:44.831Z,21.38
2022-09-30T03:34:02.324Z,29.58
2022-09-30T03:35:13.416Z,21.25
2022-09-30T03:36:25.170Z,20.08
2022-09-30T03:37:45.446Z,19.58
2022-09-30T03:38:49.573Z,22.05
2022-09-30T03:39:52.680Z,13.23
2022-09-30T03:41:19.368Z,15.32
2022-09-30T03:42:23.174Z,13.40
2022-09-30T03:43:43.867Z,14.13
2022-09-30T03:44:49.189Z,16.40
2022-09-30T03:45:58.439Z,17.67
2022-09-30T03:47:01.287Z,12.38
2022-09-30T03:48:03.196Z,17.98
2022-09-30T03:49:05.135Z,13.20
2022-09-30T03:50:07.032Z,16.42
2022-09-30T03:51:04.798Z,21.40
2022-09-30T03:52:06.496Z,18.75
2022-09-30T03:53:04.509Z,17.98
2022-09-30T03:54:01.125Z,16.33
2022-09-30T03:55:02.175Z,22.33
2022-09-30T03:55:58.808Z,17.77
2022-09-30T03:56:55.405Z,11.85
2022-09-30T03:57:52.219Z,11.27
2022-09-30T03:58:48.779Z,10.75
2022-09-30T03:59:45.379Z,19.33
2022-09-30T04:00:48.776Z,10.65
2022-09-30T04:01:45.543Z,9.15
2022-09-30T04:02:42.309Z,13.48
2022-09-30T04:03:38.933Z,19.05
2022-09-30T04:04:35.563Z,21.30
2022-09-30T04:05:32.168Z,11.48
2022-09-30T04:06:28.889Z,12.85
2022-09-30T04:07:25.573Z,14.48
2022-09-30T04:08:23.070Z,12.77
2022-09-30T04:09:19.681Z,10.55
2022-09-30T04:10:16.312Z,16.27
2022-09-30T04:11:12.987Z,10.73
2022-09-30T04:12:09.761Z,14.02
2022-09-30T04:13:06.448Z,13.93
2022-09-30T04:14:03.598Z,12.93
2022-09-30T04:15:00.205Z,15.55
2022-09-30T04:15:56.959Z,19.38
2022-09-30T04:16:54.145Z,18.35
2022-09-30T04:17:50.778Z,22.30
2022-09-30T04:18:47.396Z,12.07
2022-09-30T04:19:44.596Z,9.77
2022-09-30T04:20:41.144Z,12.07
2022-09-30T04:21:37.799Z,12.27
2022-09-30T04:22:34.400Z,16.48
2022-09-30T04:23:30.953Z,13.20
2022-09-30T04:24:27.513Z,15.77
2022-09-30T04:25:24.129Z,20.73
2022-09-30T04:26:20.933Z,16.27
2022-09-30T04:27:17.507Z,12.80
2022-09-30T04:28:14.211Z,16.98
2022-09-30T04:29:10.824Z,15.25
2022-09-30T04:30:07.926Z,21.30
2022-09-30T04:31:06.415Z,16.40
2022-09-30T04:32:03.139Z,19.67
2022-09-30T04:32:59.860Z,18.17
2022-09-30T04:33:57.172Z,72.45
2022-09-30T04:34:54.724Z,151.50
2022-09-30T04:35:59.565Z,151.27
2022-09-30T04:36:56.161Z,54.55
2022-09-30T04:37:53.144Z,162.23
2022-09-30T04:38:49.975Z,119.97
2022-09-30T04:39:46.787Z,72.00
2022-09-30T04:40:43.344Z,29.10
2022-09-30T04:41:40.872Z,22.83
2022-09-30T04:42:39.380Z,18.85
2022-09-30T04:43:36.048Z,12.63
2022-09-30T04:44:32.627Z,14.48
2022-09-30T04:45:30.150Z,13.30
2022-09-30T04:46:26.755Z,10.68
2022-09-30T04:47:25.261Z,14.07
2022-09-30T04:48:24.742Z,21.55
2022-09-30T04:49:21.782Z,18.52
2022-09-30T04:50:18.595Z,16.50
2022-09-30T04:51:17.182Z,15.20
2022-09-30T04:52:13.852Z,11.57
2022-09-30T04:53:14.656Z,13.82
2022-09-30T04:54:11.237Z,9.52
2022-09-30T04:55:09.936Z,12.27
2022-09-30T04:56:08.019Z,13.27
2022-09-30T04:57:04.759Z,15.32
2022-09-30T04:58:01.367Z,16.15
2022-09-30T04:58:58.031Z,11.65
2022-09-30T04:59:54.613Z,20.05
2022-09-30T05:00:51.370Z,26.45
2022-09-30T05:01:48.095Z,19.52
2022-09-30T05:02:45.012Z,22.90
2022-09-30T05:03:43.419Z,19.50
2022-09-30T05:04:40.283Z,23.67
2022-09-30T05:05:36.837Z,21.33
2022-09-30T05:06:33.545Z,28.98
2022-09-30T05:07:32.860Z,38.53
2022-09-30T05:08:29.440Z,34.92
2022-09-30T05:09:26.138Z,31.80
2022-09-30T05:10:22.847Z,31.38
2022-09-30T05:11:21.127Z,21.98
2022-09-30T05:12:17.834Z,24.98
2022-09-30T05:13:14.403Z,24.40
2022-09-30T05:14:11.050Z,28.27
2022-09-30T05:15:08.783Z,22.40
2022-09-30T05:16:07.190Z,16.88
2022-09-30T05:17:04.356Z,19.55
2022-09-30T05:18:01.973Z,16.38
2022-09-30T05:18:58.576Z,34.83
2022-09-30T05:19:55.225Z,28.27
2022-09-30T05:20:53.346Z,17.73
2022-09-30T05:21:50.057Z,24.23
2022-09-30T05:22:47.591Z,27.42
2022-09-30T05:23:44.480Z,27.67
2022-09-30T05:24:41.071Z,32.08
2022-09-30T05:25:37.678Z,31.63
2022-09-30T05:26:34.299Z,15.77
2022-09-30T05:27:30.923Z,20.65
2022-09-30T05:28:27.550Z,21.67
2022-09-30T05:29:24.278Z,21.45
2022-09-30T05:30:20.903Z,22.65
2022-09-30T05:31:17.664Z,19.45
2022-09-30T05:32:14.637Z,19.73
2022-09-30T05:33:13.084Z,20.10
2022-09-30T05:34:09.814Z,13.98
2022-09-30T05:35:07.065Z,15.55
2022-09-30T05:36:06.845Z,19.77
2022-09-30T05:37:03.448Z,13.77
2022-09-30T05:38:00.795Z,21.30
2022-09-30T05:38:57.380Z,17.42
2022-09-30T05:39:55.274Z,20.25
2022-09-30T05:40:52.611Z,17.42
2022-09-30T05:41:49.387Z,17.80
2022-09-30T05:42:47.208Z,14.27
2022-09-30T05:43:45.489Z,13.50
2022-09-30T05:44:42.193Z,15.32
2022-09-30T05:45:39.212Z,14.82
2022-09-30T05:46:35.842Z,14.88
2022-09-30T05:47:34.327Z,14.13
2022-09-30T05:48:31.083Z,11.55
2022-09-30T05:49:28.171Z,10.57
2022-09-30T05:50:25.296Z,7.72
2022-09-30T05:51:22.266Z,7.45
2022-09-30T05:52:19.921Z,7.35
2022-09-30T05:53:18.481Z,7.32
2022-09-30T05:54:15.062Z,10.48
2022-09-30T05:55:11.756Z,6.78
2022-09-30T05:56:11.057Z,10.25
2022-09-30T05:57:08.328Z,7.15
2022-09-30T05:58:04.959Z,8.48
2022-09-30T05:59:01.741Z,8.65
2022-09-30T05:59:58.357Z,7.63
2022-09-30T06:00:55.295Z,7.10
2022-09-30T06:01:51.956Z,6.05
2022-09-30T06:02:51.758Z,7.75
2022-09-30T06:03:48.494Z,6.63
2022-09-30T06:04:45.053Z,6.60
2022-09-30T06:05:41.798Z,6.45
2022-09-30T06:06:39.078Z,6.20
2022-09-30T06:07:36.855Z,7.88
2022-09-30T06:08:33.535Z,6.10
2022-09-30T06:09:30.317Z,7.03
2022-09-30T06:10:27.024Z,6.82
2022-09-30T06:11:25.074Z,9.00
2022-09-30T06:12:21.800Z,7.85
2022-09-30T06:13:18.551Z,6.53
2022-09-30T06:14:16.970Z,6.15
2022-09-30T06:15:16.207Z,6.75
2022-09-30T06:16:13.800Z,5.97
2022-09-30T06:17:10.386Z,5.95
2022-09-30T06:18:07.988Z,6.35
2022-09-30T06:19:06.249Z,6.70
2022-09-30T06:20:05.205Z,6.07
2022-09-30T06:21:04.961Z,7.03
2022-09-30T06:22:01.605Z,5.40
2022-09-30T06:23:01.347Z,9.15
2022-09-30T06:23:58.153Z,5.00
2022-09-30T06:24:55.505Z,5.28
2022-09-30T06:25:55.640Z,8.13
2022-09-30T06:26:52.427Z,9.00
2022-09-30T06:27:49.085Z,5.57
2022-09-30T06:28:45.892Z,5.95
2022-09-30T06:29:42.447Z,6.60
2022-09-30T06:30:39.005Z,9.85
2022-09-30T06:31:35.582Z,11.95
2022-09-30T06:32:32.339Z,9.75
2022-09-30T06:33:29.084Z,14.95
2022-09-30T06:34:26.720Z,14.57
2022-09-30T06:35:24.882Z,15.18
2022-09-30T06:36:21.760Z,9.13
2022-09-30T06:37:18.623Z,16.05
2022-09-30T06:38:15.914Z,15.40
2022-09-30T06:39:13.892Z,17.00
2022-09-30T06:40:10.721Z,10.77
2022-09-30T06:41:08.237Z,11.10
2022-09-30T06:42:04.795Z,9.38
2022-09-30T06:43:01.806Z,8.23
2022-09-30T06:44:04.650Z,5.68
2022-09-30T06:45:01.238Z,5.75
2022-09-30T06:46:10.238Z,5.97
2022-09-30T06:47:23.747Z,5.32
2022-09-30T06:48:34.251Z,5.47
2022-09-30T06:49:47.286Z,5.10
2022-09-30T06:50:58.249Z,5.75
2022-09-30T06:51:57.524Z,5.60
2022-09-30T06:52:59.302Z,4.78
2022-09-30T06:53:56.388Z,5.60
2022-09-30T06:54:56.724Z,4.10
2022-09-30T06:55:57.729Z,5.45
2022-09-30T06:56:57.457Z,4.72
2022-09-30T06:57:55.408Z,5.05
2022-09-30T06:58:52.703Z,5.25
2022-09-30T06:59:50.023Z,5.22
2022-09-30T07:00:46.600Z,7.15
2022-09-30T07:01:44.460Z,4.78
2022-09-30T07:02:41.657Z,5.70
2022-09-30T07:03:38.248Z,6.53
2022-09-30T07:04:34.785Z,8.70
2022-09-30T07:05:32.110Z,5.63
2022-09-30T07:06:29.204Z,6.15
2022-09-30T07:07:25.867Z,6.70
2022-09-30T07:08:22.398Z,5.13
2022-09-30T07:09:19.107Z,8.75
2022-09-30T07:10:15.874Z,9.48
2022-09-30T07:11:15.013Z,12.18
2022-09-30T07:12:11.692Z,7.80
2022-09-30T07:13:08.278Z,10.70
2022-09-30T07:14:06.698Z,7.78
2022-09-30T07:15:03.421Z,5.65
2022-09-30T07:16:00.197Z,7.70
2022-09-30T07:16:57.690Z,10.57
2022-09-30T07:17:56.768Z,4.70
2022-09-30T07:18:54.206Z,7.13
2022-09-30T07:19:52.297Z,5.78
2022-09-30T07:20:53.152Z,6.70
2022-09-30T07:21:50.632Z,7.13
2022-09-30T07:22:47.747Z,5.43
2022-09-30T07:23:48.327Z,7.05
2022-09-30T07:24:45.133Z,4.85
2022-09-30T07:25:50.485Z,9.57
2022-09-30T07:26:47.112Z,7.32
2022-09-30T07:27:44.948Z,7.80
2022-09-30T07:28:41.576Z,8.85
2022-09-30T07:30:04.020Z,9.27
2022-09-30T07:31:13.567Z,8.90
2022-09-30T07:32:13.778Z,10.07
2022-09-30T07:33:16.042Z,10.57
2022-09-30T07:34:13.123Z,9.52
2022-09-30T07:35:09.772Z,11.32
2022-09-30T07:36:08.373Z,11.77
2022-09-30T07:37:04.976Z,13.07
2022-09-30T07:38:02.070Z,10.90
2022-09-30T07:38:58.713Z,11.63
2022-09-30T07:39:55.287Z,11.20
2022-09-30T07:41:04.152Z,11.25
2022-09-30T07:42:02.177Z,14.68
2022-09-30T07:42:58.753Z,13.93
2022-09-30T07:43:58.771Z,9.75
2022-09-30T07:44:55.445Z,11.13
2022-09-30T07:45:52.309Z,11.30
2022-09-30T07:46:48.937Z,9.73
2022-09-30T07:47:49.646Z,14.55
2022-09-30T07:48:52.063Z,13.70
2022-09-30T07:49:48.707Z,11.18
2022-09-30T07:50:45.778Z,12.10
2022-09-30T07:51:45.924Z,11.52
2022-09-30T07:52:42.853Z,13.65
2022-09-30T07:53:40.953Z,16.17
2022-09-30T07:54:42.526Z,16.27
2022-09-30T07:55:40.910Z,18.38
2022-09-30T07:57:08.265Z,26.90
2022-09-30T07:57:55.370Z,28.40
2022-09-30T07:58:57.307Z,32.78
2022-09-30T07:59:53.889Z,38.58
2022-09-30T08:00:51.947Z,36.33
2022-09-30T08:01:49.736Z,37.67
2022-09-30T08:02:46.365Z,43.15
2022-09-30T08:03:46.957Z,42.10
2022-09-30T08:04:44.659Z,23.55
2022-09-30T08:05:45.620Z,17.30
2022-09-30T08:06:46.139Z,19.02
2022-09-30T08:07:42.794Z,24.48
2022-09-30T08:08:40.058Z,19.83
2022-09-30T08:09:37.025Z,14.05
2022-09-30T08:10:35.336Z,16.27
2022-09-30T08:11:36.435Z,19.02
2022-09-30T08:12:32.984Z,15.75
2022-09-30T08:13:29.569Z,13.60
2022-09-30T08:14:27.905Z,16.30
2022-09-30T08:15:24.503Z,16.75
2022-09-30T08:16:22.276Z,10.60
2022-09-30T08:17:18.865Z,10.65
2022-09-30T08:18:15.423Z,8.70
2022-09-30T08:19:17.928Z,12.27
2022-09-30T08:21:18.078Z,13.07
2022-09-30T08:22:16.566Z,16.25
2022-09-30T08:23:13.199Z,8.48
2022-09-30T08:24:10.359Z,7.20
2022-09-30T08:25:07.371Z,9.55
2022-09-30T08:26:06.420Z,9.32
2022-09-30T08:27:03.450Z,8.18
2022-09-30T08:28:00.129Z,11.20
2022-09-30T08:28:56.733Z,7.22
2022-09-30T08:29:56.580Z,10.60
2022-09-30T08:30:54.970Z,12.77
2022-09-30T08:31:51.822Z,9.10
2022-09-30T08:32:48.477Z,7.78
2022-09-30T08:33:45.682Z,8.75
2022-09-30T08:34:42.236Z,5.97
2022-09-30T08:35:38.805Z,9.02
2022-09-30T08:36:35.369Z,11.35
2022-09-30T08:37:32.476Z,6.90
2022-09-30T08:38:29.384Z,8.70
2022-09-30T08:39:25.996Z,7.93
2022-09-30T08:40:28.877Z,6.40
2022-09-30T08:41:57.855Z,8.82
2022-09-30T08:43:37.057Z,6.68
2022-09-30T08:44:36.534Z,12.13
2022-09-30T08:46:00.783Z,8.48
2022-09-30T08:47:02.387Z,9.27
2022-09-30T08:48:20.717Z,7.38
2022-09-30T08:50:16.822Z,5.70
2022-09-30T08:51:15.982Z,6.00
2022-09-30T08:52:30.121Z,6.45
2022-09-30T08:53:31.840Z,7.55
2022-09-30T08:54:39.902Z,7.25
2022-09-30T08:55:43.054Z,6.07
2022-09-30T08:56:39.691Z,9.77
2022-09-30T08:57:45.074Z,10.25
2022-09-30T08:58:46.657Z,8.73
2022-09-30T09:00:12.582Z,11.93
2022-09-30T09:01:33.168Z,10.60
2022-09-30T09:02:49.074Z,9.05
2022-09-30T09:03:46.005Z,11.30
2022-09-30T09:04:43.337Z,11.73
2022-09-30T09:05:58.087Z,7.13
2022-09-30T09:06:57.397Z,7.07
2022-09-30T09:08:18.782Z,9.23
2022-09-30T09:09:32.696Z,15.20
2022-09-30T09:10:51.198Z,7.80
2022-09-30T09:12:29.065Z,6.63
2022-09-30T09:13:50.218Z,8.85
2022-09-30T09:14:54.637Z,8.80
2022-09-30T09:16:07.890Z,9.00
2022-09-30T09:17:25.569Z,8.98
2022-09-30T09:18:40.567Z,7.95
2022-09-30T09:19:47.606Z,7.93
2022-09-30T09:20:56.895Z,12.60
2022-09-30T09:22:01.901Z,11.32
2022-09-30T09:23:01.625Z,9.80
2022-09-30T09:24:02.757Z,10.85
2022-09-30T09:25:02.327Z,9.57
2022-09-30T09:25:59.020Z,8.45
2022-09-30T09:26:57.858Z,9.98
2022-09-30T09:28:03.202Z,6.78
2022-09-30T09:29:21.114Z,8.75
2022-09-30T09:30:24.339Z,8.27
2022-09-30T09:31:21.650Z,9.95
2022-09-30T09:32:19.029Z,6.60
2022-09-30T09:33:25.969Z,8.27
2022-09-30T09:34:25.446Z,9.95
2022-09-30T09:35:40.996Z,8.45
2022-09-30T09:37:02.776Z,13.55
2022-09-30T09:38:25.287Z,17.42
2022-09-30T09:39:39.175Z,11.30
2022-09-30T09:41:05.056Z,10.75
2022-09-30T09:42:14.661Z,11.02
2022-09-30T09:43:24.879Z,9.10
2022-09-30T09:46:09.213Z,8.75
2022-09-30T09:47:14.055Z,10.32
2022-09-30T09:48:13.922Z,9.05
2022-09-30T09:49:24.247Z,13.95
2022-09-30T09:50:52.908Z,11.05
2022-09-30T09:52:12.570Z,8.55
2022-09-30T09:53:23.799Z,9.68
2022-09-30T09:54:22.364Z,8.32
2022-09-30T09:55:22.363Z,8.40
2022-09-30T09:56:22.044Z,11.05
2022-09-30T09:57:25.836Z,9.48
2022-09-30T09:58:22.386Z,8.13
2022-09-30T09:59:20.219Z,9.07
2022-09-30T10:01:00.422Z,12.15
2022-09-30T10:01:57.086Z,10.38
2022-09-30T10:03:23.983Z,9.07
2022-09-30T10:04:26.275Z,8.18
2022-09-30T10:06:22.190Z,8.13
2022-09-30T10:07:20.394Z,11.68
2022-09-30T10:08:18.677Z,8.45
2022-09-30T10:09:29.100Z,9.10
2022-09-30T10:10:25.934Z,7.97
2022-09-30T10:11:26.415Z,8.52
2022-09-30T10:12:29.651Z,8.18
2022-09-30T10:13:38.403Z,8.95
2022-09-30T10:14:46.438Z,4.75
2022-09-30T10:15:43.511Z,9.73
2022-09-30T10:16:40.167Z,7.82
2022-09-30T10:17:38.907Z,7.38
2022-09-30T10:18:37.730Z,5.57
2022-09-30T10:19:35.220Z,7.82
2022-09-30T10:20:37.021Z,5.60
2022-09-30T10:21:33.696Z,9.57
2022-09-30T10:22:31.882Z,8.18
2022-09-30T10:23:33.491Z,7.45
2022-09-30T10:24:31.611Z,8.40
2022-09-30T10:25:28.857Z,6.53
2022-09-30T10:27:32.228Z,8.02
2022-09-30T10:28:31.500Z,6.88
2022-09-30T10:29:31.663Z,6.55
2022-09-30T10:30:40.283Z,9.43
2022-09-30T10:31:42.206Z,8.07
2022-09-30T10:32:39.161Z,6.65
2022-09-30T10:33:45.076Z,6.75
2022-09-30T10:34:44.041Z,7.07
2022-09-30T10:36:02.486Z,11.75
2022-09-30T10:37:02.667Z,6.25
2022-09-30T10:38:02.380Z,7.82
2022-09-30T10:39:02.573Z,5.75
2022-09-30T10:40:09.120Z,7.47
2022-09-30T10:41:06.166Z,5.47
2022-09-30T10:42:15.594Z,7.53
2022-09-30T10:43:26.817Z,6.47
2022-09-30T10:44:24.298Z,4.93
2022-09-30T10:45:41.303Z,11.57
2022-09-30T10:46:40.847Z,5.57
2022-09-30T10:47:44.917Z,6.32
2022-09-30T10:48:41.737Z,7.18
2022-09-30T10:49:45.403Z,5.38
2022-09-30T10:50:50.428Z,7.40
2022-09-30T10:51:46.938Z,8.00
2022-09-30T10:52:55.263Z,8.40
2022-09-30T10:53:52.922Z,7.80
2022-09-30T10:55:25.570Z,6.57
2022-09-30T10:56:44.989Z,5.50
2022-09-30T10:57:41.721Z,7.07
2022-09-30T10:58:41.349Z,7.20
2022-09-30T10:59:39.008Z,6.82
2022-09-30T11:00:35.825Z,5.47
2022-09-30T11:01:43.746Z,5.35
2022-09-30T11:03:05.902Z,4.45
2022-09-30T11:04:29.851Z,5.80
2022-09-30T11:05:40.206Z,6.63
2022-09-30T11:06:40.933Z,2.85
2022-09-30T11:07:45.636Z,5.47
2022-09-30T11:08:57.101Z,6.57
2022-09-30T11:10:02.414Z,5.95
2022-09-30T11:11:29.679Z,5.05
2022-09-30T11:12:39.039Z,4.93
2022-09-30T11:13:59.131Z,3.53
2022-09-30T11:15:12.395Z,4.10
2022-09-30T11:16:15.116Z,3.53
2022-09-30T11:17:32.378Z,5.90
2022-09-30T11:18:41.784Z,3.90
2022-09-30T11:19:51.590Z,5.47
2022-09-30T11:20:57.672Z,7.32
2022-09-30T11:21:57.001Z,6.82
2022-09-30T11:23:03.226Z,6.40
2022-09-30T11:24:16.460Z,3.70
2022-09-30T11:25:27.611Z,5.80
2022-09-30T11:26:39.655Z,9.70
2022-09-30T11:27:45.170Z,2.95
2022-09-30T11:29:12.143Z,3.25
2022-09-30T11:30:30.891Z,3.45
2022-09-30T11:31:27.657Z,3.30
2022-09-30T11:32:51.955Z,6.22
2022-09-30T11:33:57.081Z,4.43
2022-09-30T11:35:03.845Z,4.18
2022-09-30T11:36:10.878Z,5.00
2022-09-30T11:37:22.414Z,5.30
2022-09-30T11:39:12.367Z,4.57
2022-09-30T11:40:29.888Z,5.28
2022-09-30T11:41:29.329Z,9.90
2022-09-30T11:42:32.136Z,4.90
2022-09-30T11:43:52.887Z,2.53
2022-09-30T11:45:03.189Z,5.43
2022-09-30T11:46:48.116Z,3.08
2022-09-30T11:48:28.229Z,4.60
2022-09-30T11:49:46.029Z,4.70
2022-09-30T11:50:45.759Z,8.07
2022-09-30T11:51:42.292Z,5.20
2022-09-30T11:52:38.817Z,1.98
2022-09-30T11:54:07.119Z,1.98
2022-09-30T11:55:22.244Z,3.15
2022-09-30T11:56:43.632Z,2.22
2022-09-30T11:58:36.063Z,6.32
2022-09-30T11:59:36.784Z,1.58
2022-09-30T12:00:37.762Z,3.20
2022-09-30T12:01:44.334Z,3.75
2022-09-30T12:03:12.813Z,4.20
2022-09-30T12:04:32.138Z,2.28
2022-09-30T12:05:35.973Z,2.47
2022-09-30T12:06:36.578Z,4.13
2022-09-30T12:07:43.467Z,3.55
2022-09-30T12:08:50.729Z,2.03
2022-09-30T12:09:55.240Z,4.78
2022-09-30T12:10:57.766Z,3.35
2022-09-30T12:12:02.263Z,1.60
2022-09-30T12:13:12.370Z,2.15
2022-09-30T12:14:33.999Z,2.92
2022-09-30T12:15:31.592Z,2.17
2022-09-30T12:16:32.270Z,1.42
2022-09-30T12:17:39.290Z,1.38
2022-09-30T12:18:47.331Z,2.85
2022-09-30T12:19:53.296Z,4.78
2022-09-30T12:20:53.884Z,3.97
2022-09-30T12:22:01.914Z,3.33
2022-09-30T12:23:10.947Z,5.72
2022-09-30T12:24:44.921Z,3.10
2022-09-30T12:25:46.337Z,5.00
2022-09-30T12:26:43.034Z,1.95
2022-09-30T12:27:45.954Z,4.20
2022-09-30T12:29:12.042Z,2.58
2022-09-30T12:30:19.424Z,4.70
2022-09-30T12:31:34.042Z,1.48
2022-09-30T12:32:42.742Z,4.82
2022-09-30T12:34:08.069Z,3.63
2022-09-30T12:35:24.099Z,3.90
2022-09-30T12:36:24.526Z,3.22
2022-09-30T12:37:45.833Z,2.63
2022-09-30T12:38:51.504Z,7.88
2022-09-30T12:39:58.008Z,8.60
2022-09-30T12:41:24.254Z,6.68
2022-09-30T12:42:33.672Z,6.57
2022-09-30T12:43:51.449Z,4.90
2022-09-30T12:45:06.161Z,4.05
2022-09-30T12:46:13.399Z,12.63
2022-09-30T12:47:31.394Z,9.85
2022-09-30T12:48:36.704Z,5.28
2022-09-30T12:49:37.562Z,1.65
2022-09-30T12:50:42.065Z,2.97
2022-09-30T12:51:44.258Z,2.50
2022-09-30T12:52:41.078Z,3.00
2022-09-30T12:53:40.679Z,5.38
2022-09-30T12:54:42.865Z,3.30
2022-09-30T12:55:42.360Z,9.30
2022-09-30T12:56:42.934Z,4.70
2022-09-30T12:57:43.358Z,3.85
2022-09-30T12:58:50.617Z,6.22
2022-09-30T13:00:02.301Z,5.10
2022-09-30T13:01:15.128Z,5.07
2022-09-30T13:02:28.116Z,2.45
2022-09-30T13:04:43.029Z,6.55
2022-09-30T13:05:43.755Z,2.42
2022-09-30T13:06:46.426Z,6.63
2022-09-30T13:08:05.600Z,2.53
2022-09-30T13:09:11.202Z,4.28
2022-09-30T13:10:31.916Z,5.65
2022-09-30T13:11:37.410Z,4.43
2022-09-30T13:12:46.902Z,3.15
2022-09-30T13:14:02.495Z,4.28
2022-09-30T13:15:42.161Z,3.63
2022-09-30T13:16:58.982Z,1.90
2022-09-30T13:18:02.592Z,2.97
2022-09-30T13:19:01.141Z,5.22
2022-09-30T13:19:57.874Z,4.35
2022-09-30T13:21:07.952Z,5.65
2022-09-30T13:22:19.975Z,11.27
2022-09-30T13:23:47.055Z,4.13
2022-09-30T13:25:00.383Z,4.60
2022-09-30T13:25:57.010Z,9.88
2022-09-30T13:27:07.971Z,7.97
2022-09-30T13:28:13.533Z,4.20
2022-09-30T13:29:19.792Z,3.90
2022-09-30T13:30:16.364Z,8.63
2022-09-30T13:31:19.475Z,4.00
2022-09-30T13:32:33.279Z,3.30
2022-09-30T13:33:41.560Z,2.42
2022-09-30T13:34:54.319Z,3.70
2022-09-30T13:35:51.520Z,3.67
2022-09-30T13:36:51.137Z,4.03
2022-09-30T13:38:16.302Z,1.40
2022-09-30T13:39:45.694Z,2.75
2022-09-30T13:41:19.979Z,1.67
2022-09-30T13:43:34.159Z,6.20
2022-09-30T13:44:57.147Z,4.07
2022-09-30T13:45:57.293Z,3.20
2022-09-30T13:47:02.270Z,4.60
2022-09-30T13:48:11.186Z,5.85
2022-09-30T13:49:18.412Z,3.25
2022-09-30T13:50:27.342Z,3.33
2022-09-30T13:51:28.261Z,2.95
2022-09-30T13:52:29.252Z,3.03
2022-09-30T13:53:51.284Z,8.32
2022-09-30T13:54:50.268Z,3.35
2022-09-30T13:55:50.860Z,4.22
2022-09-30T13:56:47.835Z,3.00
2022-09-30T13:58:08.994Z,2.80
2022-09-30T13:59:23.796Z,3.28
2022-09-30T14:00:24.110Z,5.85
2022-09-30T14:01:34.966Z,1.88
2022-09-30T14:02:31.570Z,3.25
2022-09-30T14:03:49.302Z,2.25
2022-09-30T14:05:18.145Z,6.95
2022-09-30T14:06:36.905Z,1.70
2022-09-30T14:08:11.872Z,1.63
2022-09-30T14:09:29.787Z,3.45
2022-09-30T14:10:57.136Z,1.73